sensor_id;sensor_type;location;lat;lon;timestamp;temperature;humidity
26378;DHT22;14078;50.974;6.786;2023-04-06T00:01:44;3.30;1.00
26378;DHT22;14078;50.974;6.786;2023-04-06T00:04:12;3.20;99.90
26378;DHT22;14078;50.974;6.786;2023-04-06T00:06:38;3.10;26.10
26378;DHT22;14078;50.974;6.786;2023-04-06T00:09:05;3.00;99.90
26378;DHT22;14078;50.974;6.786;2023-04-06T00:11:32;2.90;1.00
26378;DHT22;14078;50.974;6.786;2023-04-06T00:14:00;2.80;1.00
26378;DHT22;14078;50.974;6.786;2023-04-06T00:16:26;2.80;1.00
26378;DHT22;14078;50.974;6.786;2023-04-06T00:18:53;2.90;26.60
26378;DHT22;14078;50.974;6.786;2023-04-06T00:21:19;3.00;99.90
26378;DHT22;14078;50.974;6.786;2023-04-06T00:23:46;3.10;1.00
26378;DHT22;14078;50.974;6.786;2023-04-06T00:26:13;3.20;99.90
26378;DHT22;14078;50.974;6.786;2023-04-06T00:28:39;3.30;99.90
26378;DHT22;14078;50.974;6.786;2023-04-06T00:31:07;3.30;99.90
26378;DHT22;14078;50.974;6.786;2023-04-06T00:33:34;3.30;1.00
26378;DHT22;14078;50.974;6.786;2023-04-06T00:36:01;3.30;99.90
26378;DHT22;14078;50.974;6.786;2023-04-06T00:38:27;3.20;1.00
26378;DHT22;14078;50.974;6.786;2023-04-06T00:40:54;3.10;1.00
26378;DHT22;14078;50.974;6.786;2023-04-06T00:43:20;3.10;1.00
26378;DHT22;14078;50.974;6.786;2023-04-06T00:45:47;3.10;99.90
26378;DHT22;14078;50.974;6.786;2023-04-06T00:48:15;3.10;1.00
26378;DHT22;14078;50.974;6.786;2023-04-06T00:50:42;3.10;99.90
26378;DHT22;14078;50.974;6.786;2023-04-06T00:53:09;3.10;99.90
26378;DHT22;14078;50.974;6.786;2023-04-06T00:55:36;3.10;99.90
26378;DHT22;14078;50.974;6.786;2023-04-06T00:58:02;3.00;1.00
26378;DHT22;14078;50.974;6.786;2023-04-06T01:00:29;2.90;99.90
26378;DHT22;14078;50.974;6.786;2023-04-06T01:05:30;2.70;1.00
26378;DHT22;14078;50.974;6.786;2023-04-06T01:07:56;2.70;99.90
26378;DHT22;14078;50.974;6.786;2023-04-06T01:10:23;2.60;99.90
26378;DHT22;14078;50.974;6.786;2023-04-06T01:12:50;2.70;53.10
26378;DHT22;14078;50.974;6.786;2023-04-06T01:15:16;2.60;1.00
26378;DHT22;14078;50.974;6.786;2023-04-06T01:17:43;2.70;99.90
26378;DHT22;14078;50.974;6.786;2023-04-06T01:20:10;2.60;1.00
26378;DHT22;14078;50.974;6.786;2023-04-06T01:22:38;2.70;1.00
26378;DHT22;14078;50.974;6.786;2023-04-06T01:25:05;2.70;99.90
26378;DHT22;14078;50.974;6.786;2023-04-06T01:27:31;2.80;1.00
26378;DHT22;14078;50.974;6.786;2023-04-06T01:29:58;2.80;99.90
26378;DHT22;14078;50.974;6.786;2023-04-06T01:32:25;2.80;27.90
26378;DHT22;14078;50.974;6.786;2023-04-06T01:34:52;2.80;1.00
26378;DHT22;14078;50.974;6.786;2023-04-06T01:37:20;2.90;1.60
26378;DHT22;14078;50.974;6.786;2023-04-06T01:39:48;2.90;1.00
26378;DHT22;14078;50.974;6.786;2023-04-06T01:42:14;2.90;1.00
26378;DHT22;14078;50.974;6.786;2023-04-06T01:44:41;2.90;99.90
26378;DHT22;14078;50.974;6.786;2023-04-06T01:47:08;2.90;1.00
26378;DHT22;14078;50.974;6.786;2023-04-06T01:49:34;2.90;99.90
26378;DHT22;14078;50.974;6.786;2023-04-06T01:52:01;2.90;99.90
26378;DHT22;14078;50.974;6.786;2023-04-06T01:54:28;2.90;99.90
26378;DHT22;14078;50.974;6.786;2023-04-06T01:56:56;2.80;1.00
26378;DHT22;14078;50.974;6.786;2023-04-06T01:59:22;2.80;1.00
26378;DHT22;14078;50.974;6.786;2023-04-06T02:01:49;2.80;1.00
26378;DHT22;14078;50.974;6.786;2023-04-06T02:04:15;2.80;1.00
26378;DHT22;14078;50.974;6.786;2023-04-06T02:06:42;2.80;99.90
26378;DHT22;14078;50.974;6.786;2023-04-06T02:09:09;2.90;1.00
26378;DHT22;14078;50.974;6.786;2023-04-06T02:11:35;2.80;75.70
26378;DHT22;14078;50.974;6.786;2023-04-06T02:14:03;2.80;1.00
26378;DHT22;14078;50.974;6.786;2023-04-06T02:16:30;2.60;99.90
26378;DHT22;14078;50.974;6.786;2023-04-06T02:18:56;2.50;99.90
26378;DHT22;14078;50.974;6.786;2023-04-06T02:21:23;2.50;1.00
26378;DHT22;14078;50.974;6.786;2023-04-06T02:23:49;2.50;99.90
26378;DHT22;14078;50.974;6.786;2023-04-06T02:26:16;2.50;99.90
26378;DHT22;14078;50.974;6.786;2023-04-06T02:28:43;2.60;72.90
26378;DHT22;14078;50.974;6.786;2023-04-06T02:31:11;2.60;23.60
26378;DHT22;14078;50.974;6.786;2023-04-06T02:33:40;2.60;50.10
26378;DHT22;14078;50.974;6.786;2023-04-06T02:36:06;2.50;99.90
26378;DHT22;14078;50.974;6.786;2023-04-06T02:38:33;2.50;1.00
26378;DHT22;14078;50.974;6.786;2023-04-06T02:41:00;2.50;1.00
26378;DHT22;14078;50.974;6.786;2023-04-06T02:43:26;2.60;99.90
26378;DHT22;14078;50.974;6.786;2023-04-06T02:45:53;2.60;1.00
26378;DHT22;14078;50.974;6.786;2023-04-06T02:48:21;2.60;1.00
26378;DHT22;14078;50.974;6.786;2023-04-06T02:50:47;2.60;51.00
26378;DHT22;14078;50.974;6.786;2023-04-06T02:53:14;2.60;99.90
26378;DHT22;14078;50.974;6.786;2023-04-06T02:55:40;2.60;1.00
26378;DHT22;14078;50.974;6.786;2023-04-06T02:58:07;2.50;99.90
26378;DHT22;14078;50.974;6.786;2023-04-06T03:00:34;2.50;99.90
26378;DHT22;14078;50.974;6.786;2023-04-06T03:03:01;2.40;1.00
26378;DHT22;14078;50.974;6.786;2023-04-06T03:05:29;2.30;99.90
26378;DHT22;14078;50.974;6.786;2023-04-06T03:07:56;2.20;99.90
26378;DHT22;14078;50.974;6.786;2023-04-06T03:10:22;2.10;1.00
26378;DHT22;14078;50.974;6.786;2023-04-06T03:12:49;2.20;1.00
26378;DHT22;14078;50.974;6.786;2023-04-06T03:15:15;2.20;1.00
26378;DHT22;14078;50.974;6.786;2023-04-06T03:17:42;2.10;1.00
26378;DHT22;14078;50.974;6.786;2023-04-06T03:20:09;2.10;1.00
26378;DHT22;14078;50.974;6.786;2023-04-06T03:22:37;2.20;1.00
26378;DHT22;14078;50.974;6.786;2023-04-06T03:25:04;2.10;1.00
26378;DHT22;14078;50.974;6.786;2023-04-06T03:27:31;2.10;1.00
26378;DHT22;14078;50.974;6.786;2023-04-06T03:29:57;2.20;1.00
26378;DHT22;14078;50.974;6.786;2023-04-06T03:32:24;2.30;1.00
26378;DHT22;14078;50.974;6.786;2023-04-06T03:34:51;2.30;1.00
26378;DHT22;14078;50.974;6.786;2023-04-06T03:37:18;2.30;1.00
26378;DHT22;14078;50.974;6.786;2023-04-06T03:39:46;2.20;1.00
26378;DHT22;14078;50.974;6.786;2023-04-06T03:42:12;2.10;1.00
26378;DHT22;14078;50.974;6.786;2023-04-06T03:44:39;2.20;1.00
26378;DHT22;14078;50.974;6.786;2023-04-06T03:47:05;2.20;1.00
26378;DHT22;14078;50.974;6.786;2023-04-06T03:49:32;2.20;1.00
26378;DHT22;14078;50.974;6.786;2023-04-06T03:51:58;2.20;1.00
26378;DHT22;14078;50.974;6.786;2023-04-06T03:54:25;2.20;1.00
26378;DHT22;14078;50.974;6.786;2023-04-06T03:56:53;2.20;1.00
26378;DHT22;14078;50.974;6.786;2023-04-06T03:59:20;2.10;1.00
26378;DHT22;14078;50.974;6.786;2023-04-06T04:01:47;2.10;1.00
26378;DHT22;14078;50.974;6.786;2023-04-06T04:04:13;2.10;1.00
26378;DHT22;14078;50.974;6.786;2023-04-06T04:06:40;2.10;1.00
26378;DHT22;14078;50.974;6.786;2023-04-06T04:09:06;2.10;1.00
26378;DHT22;14078;50.974;6.786;2023-04-06T04:11:33;2.10;1.00
26378;DHT22;14078;50.974;6.786;2023-04-06T04:14:01;2.00;1.00
26378;DHT22;14078;50.974;6.786;2023-04-06T04:16:27;2.00;1.00
26378;DHT22;14078;50.974;6.786;2023-04-06T04:18:54;2.00;1.00
26378;DHT22;14078;50.974;6.786;2023-04-06T04:21:21;1.70;1.00
26378;DHT22;14078;50.974;6.786;2023-04-06T04:23:47;2.10;1.00
26378;DHT22;14078;50.974;6.786;2023-04-06T04:26:14;2.10;1.00
26378;DHT22;14078;50.974;6.786;2023-04-06T04:28:40;2.00;1.00
26378;DHT22;14078;50.974;6.786;2023-04-06T04:31:08;2.00;1.00
26378;DHT22;14078;50.974;6.786;2023-04-06T04:33:35;2.00;1.00
26378;DHT22;14078;50.974;6.786;2023-04-06T04:36:02;1.90;1.00
26378;DHT22;14078;50.974;6.786;2023-04-06T04:38:29;1.90;1.00
26378;DHT22;14078;50.974;6.786;2023-04-06T04:40:55;1.90;1.00
26378;DHT22;14078;50.974;6.786;2023-04-06T04:43:22;1.90;1.00
26378;DHT22;14078;50.974;6.786;2023-04-06T04:45:48;1.80;1.00
26378;DHT22;14078;50.974;6.786;2023-04-06T04:48:16;1.80;1.00
26378;DHT22;14078;50.974;6.786;2023-04-06T04:50:43;1.80;1.00
26378;DHT22;14078;50.974;6.786;2023-04-06T04:53:10;1.80;1.00
26378;DHT22;14078;50.974;6.786;2023-04-06T04:55:36;1.80;1.00
26378;DHT22;14078;50.974;6.786;2023-04-06T04:58:03;1.80;1.00
26378;DHT22;14078;50.974;6.786;2023-04-06T05:00:29;1.90;1.00
26378;DHT22;14078;50.974;6.786;2023-04-06T05:02:56;1.90;1.00
26378;DHT22;14078;50.974;6.786;2023-04-06T05:05:24;1.80;1.00
26378;DHT22;14078;50.974;6.786;2023-04-06T05:07:51;1.90;1.00
26378;DHT22;14078;50.974;6.786;2023-04-06T05:10:18;1.80;1.00
26378;DHT22;14078;50.974;6.786;2023-04-06T05:12:45;1.90;1.00
26378;DHT22;14078;50.974;6.786;2023-04-06T05:15:11;1.90;1.00
26378;DHT22;14078;50.974;6.786;2023-04-06T05:17:38;2.00;1.00
26378;DHT22;14078;50.974;6.786;2023-04-06T05:20:05;2.10;1.00
26378;DHT22;14078;50.974;6.786;2023-04-06T05:22:33;2.10;1.00
26378;DHT22;14078;50.974;6.786;2023-04-06T05:25:01;2.10;1.00
26378;DHT22;14078;50.974;6.786;2023-04-06T05:27:27;2.10;1.00
26378;DHT22;14078;50.974;6.786;2023-04-06T05:29:54;2.20;1.00
26378;DHT22;14078;50.974;6.786;2023-04-06T05:32:21;2.20;1.00
26378;DHT22;14078;50.974;6.786;2023-04-06T05:34:49;2.20;1.00
26378;DHT22;14078;50.974;6.786;2023-04-06T05:37:16;2.30;1.00
26378;DHT22;14078;50.974;6.786;2023-04-06T05:39:44;2.30;1.00
26378;DHT22;14078;50.974;6.786;2023-04-06T05:42:11;2.40;1.00
26378;DHT22;14078;50.974;6.786;2023-04-06T05:44:37;2.40;1.00
26378;DHT22;14078;50.974;6.786;2023-04-06T05:47:04;2.50;1.00
26378;DHT22;14078;50.974;6.786;2023-04-06T05:49:30;2.50;1.00
26378;DHT22;14078;50.974;6.786;2023-04-06T05:51:57;2.50;1.00
26378;DHT22;14078;50.974;6.786;2023-04-06T05:54:24;2.60;1.00
26378;DHT22;14078;50.974;6.786;2023-04-06T05:56:51;2.60;1.00
26378;DHT22;14078;50.974;6.786;2023-04-06T05:59:18;2.70;1.00
26378;DHT22;14078;50.974;6.786;2023-04-06T06:01:45;2.70;1.00
26378;DHT22;14078;50.974;6.786;2023-04-06T06:04:12;2.80;1.00
26378;DHT22;14078;50.974;6.786;2023-04-06T06:06:39;3.00;1.00
26378;DHT22;14078;50.974;6.786;2023-04-06T06:09:05;3.00;1.00
26378;DHT22;14078;50.974;6.786;2023-04-06T06:11:32;3.10;1.00
26378;DHT22;14078;50.974;6.786;2023-04-06T06:14:00;3.20;1.00
26378;DHT22;14078;50.974;6.786;2023-04-06T06:16:27;3.20;1.00
26378;DHT22;14078;50.974;6.786;2023-04-06T06:18:53;3.30;1.00
26378;DHT22;14078;50.974;6.786;2023-04-06T06:21:20;3.40;1.00
26378;DHT22;14078;50.974;6.786;2023-04-06T06:23:47;3.50;1.00
26378;DHT22;14078;50.974;6.786;2023-04-06T06:26:14;3.60;1.00
26378;DHT22;14078;50.974;6.786;2023-04-06T06:28:41;3.80;1.00
26378;DHT22;14078;50.974;6.786;2023-04-06T06:31:09;3.90;1.00
26378;DHT22;14078;50.974;6.786;2023-04-06T06:33:35;4.00;99.90
26378;DHT22;14078;50.974;6.786;2023-04-06T06:36:02;4.20;29.00
26378;DHT22;14078;50.974;6.786;2023-04-06T06:38:29;4.30;1.00
26378;DHT22;14078;50.974;6.786;2023-04-06T06:40:55;4.40;22.80
26378;DHT22;14078;50.974;6.786;2023-04-06T06:43:22;4.60;99.90
26378;DHT22;14078;50.974;6.786;2023-04-06T06:45:49;4.70;1.00
26378;DHT22;14078;50.974;6.786;2023-04-06T06:48:17;4.90;99.90
26378;DHT22;14078;50.974;6.786;2023-04-06T06:50:43;5.10;99.90
26378;DHT22;14078;50.974;6.786;2023-04-06T06:53:10;5.20;99.90
26378;DHT22;14078;50.974;6.786;2023-04-06T06:55:37;5.40;99.90
26378;DHT22;14078;50.974;6.786;2023-04-06T06:58:03;5.50;99.90
26378;DHT22;14078;50.974;6.786;2023-04-06T07:00:31;5.70;1.00
26378;DHT22;14078;50.974;6.786;2023-04-06T07:02:58;6.00;1.00
26378;DHT22;14078;50.974;6.786;2023-04-06T07:05:26;6.10;1.00
26378;DHT22;14078;50.974;6.786;2023-04-06T07:07:52;6.20;1.00
26378;DHT22;14078;50.974;6.786;2023-04-06T07:10:19;6.40;1.00
26378;DHT22;14078;50.974;6.786;2023-04-06T07:12:46;6.50;1.00
26378;DHT22;14078;50.974;6.786;2023-04-06T07:15:12;6.70;1.00
26378;DHT22;14078;50.974;6.786;2023-04-06T07:17:39;6.80;1.00
26378;DHT22;14078;50.974;6.786;2023-04-06T07:20:06;6.80;99.90
26378;DHT22;14078;50.974;6.786;2023-04-06T07:22:34;6.80;99.90
26378;DHT22;14078;50.974;6.786;2023-04-06T07:25:01;6.80;99.90
26378;DHT22;14078;50.974;6.786;2023-04-06T07:27:27;6.80;99.90
26378;DHT22;14078;50.974;6.786;2023-04-06T07:29:54;6.80;99.90
26378;DHT22;14078;50.974;6.786;2023-04-06T07:32:21;6.80;99.90
26378;DHT22;14078;50.974;6.786;2023-04-06T07:34:47;6.90;99.90
26378;DHT22;14078;50.974;6.786;2023-04-06T07:37:14;7.00;99.90
26378;DHT22;14078;50.974;6.786;2023-04-06T07:39:42;7.10;99.90
26378;DHT22;14078;50.974;6.786;2023-04-06T07:42:08;7.20;99.90
26378;DHT22;14078;50.974;6.786;2023-04-06T07:44:35;7.20;99.90
26378;DHT22;14078;50.974;6.786;2023-04-06T07:47:01;7.30;99.90
26378;DHT22;14078;50.974;6.786;2023-04-06T07:49:28;7.40;99.90
26378;DHT22;14078;50.974;6.786;2023-04-06T07:51:55;7.50;99.90
26378;DHT22;14078;50.974;6.786;2023-04-06T07:54:22;7.60;99.90
26378;DHT22;14078;50.974;6.786;2023-04-06T07:56:50;7.70;99.90
26378;DHT22;14078;50.974;6.786;2023-04-06T07:59:16;7.90;99.90
26378;DHT22;14078;50.974;6.786;2023-04-06T08:01:43;8.00;99.90
26378;DHT22;14078;50.974;6.786;2023-04-06T08:04:10;8.20;99.90
26378;DHT22;14078;50.974;6.786;2023-04-06T08:06:36;8.30;99.90
26378;DHT22;14078;50.974;6.786;2023-04-06T08:09:03;8.40;99.90
26378;DHT22;14078;50.974;6.786;2023-04-06T08:11:30;8.50;99.90
26378;DHT22;14078;50.974;6.786;2023-04-06T08:13:58;8.60;99.90
26378;DHT22;14078;50.974;6.786;2023-04-06T08:16:24;8.70;99.90
26378;DHT22;14078;50.974;6.786;2023-04-06T08:18:51;8.80;99.90
26378;DHT22;14078;50.974;6.786;2023-04-06T08:21:17;8.90;99.90
26378;DHT22;14078;50.974;6.786;2023-04-06T08:23:44;9.00;99.90
26378;DHT22;14078;50.974;6.786;2023-04-06T08:26:11;9.00;99.90
26378;DHT22;14078;50.974;6.786;2023-04-06T08:28:37;9.10;99.90
26378;DHT22;14078;50.974;6.786;2023-04-06T08:31:06;9.20;99.90
26378;DHT22;14078;50.974;6.786;2023-04-06T08:33:32;9.40;99.90
26378;DHT22;14078;50.974;6.786;2023-04-06T08:36:06;9.50;99.90
26378;DHT22;14078;50.974;6.786;2023-04-06T08:38:32;9.60;99.90
26378;DHT22;14078;50.974;6.786;2023-04-06T08:40:59;9.60;99.90
26378;DHT22;14078;50.974;6.786;2023-04-06T08:43:26;9.60;99.90
26378;DHT22;14078;50.974;6.786;2023-04-06T08:45:53;9.60;99.90
26378;DHT22;14078;50.974;6.786;2023-04-06T08:48:21;9.70;99.90
26378;DHT22;14078;50.974;6.786;2023-04-06T08:50:49;9.80;99.90
26378;DHT22;14078;50.974;6.786;2023-04-06T08:53:16;10.00;99.90
26378;DHT22;14078;50.974;6.786;2023-04-06T08:55:42;10.10;99.90
26378;DHT22;14078;50.974;6.786;2023-04-06T08:58:09;10.20;99.90
26378;DHT22;14078;50.974;6.786;2023-04-06T09:00:37;10.20;99.90
26378;DHT22;14078;50.974;6.786;2023-04-06T09:03:04;10.40;99.90
26378;DHT22;14078;50.974;6.786;2023-04-06T09:05:33;10.40;99.90
26378;DHT22;14078;50.974;6.786;2023-04-06T09:08:00;10.50;99.90
26378;DHT22;14078;50.974;6.786;2023-04-06T09:10:27;10.60;99.90
26378;DHT22;14078;50.974;6.786;2023-04-06T09:13:02;10.70;99.90
26378;DHT22;14078;50.974;6.786;2023-04-06T09:15:28;10.80;99.90
26378;DHT22;14078;50.974;6.786;2023-04-06T09:17:55;10.80;99.90
26378;DHT22;14078;50.974;6.786;2023-04-06T09:20:22;10.90;99.90
26378;DHT22;14078;50.974;6.786;2023-04-06T09:22:52;10.90;99.90
26378;DHT22;14078;50.974;6.786;2023-04-06T09:25:19;11.00;99.90
26378;DHT22;14078;50.974;6.786;2023-04-06T09:27:48;11.00;99.90
26378;DHT22;14078;50.974;6.786;2023-04-06T09:30:15;11.20;99.90
26378;DHT22;14078;50.974;6.786;2023-04-06T09:32:46;11.30;96.10
26378;DHT22;14078;50.974;6.786;2023-04-06T09:35:14;11.10;96.50
26378;DHT22;14078;50.974;6.786;2023-04-06T09:37:41;11.20;99.90
26378;DHT22;14078;50.974;6.786;2023-04-06T09:40:09;11.40;99.50
26378;DHT22;14078;50.974;6.786;2023-04-06T09:42:36;11.60;99.90
26378;DHT22;14078;50.974;6.786;2023-04-06T09:45:03;11.60;99.20
26378;DHT22;14078;50.974;6.786;2023-04-06T09:47:30;11.70;99.90
26378;DHT22;14078;50.974;6.786;2023-04-06T09:49:58;11.80;98.30
26378;DHT22;14078;50.974;6.786;2023-04-06T09:52:26;12.00;99.90
26378;DHT22;14078;50.974;6.786;2023-04-06T09:54:54;12.00;99.90
26378;DHT22;14078;50.974;6.786;2023-04-06T09:57:24;12.10;99.90
26378;DHT22;14078;50.974;6.786;2023-04-06T09:59:53;12.20;99.90
26378;DHT22;14078;50.974;6.786;2023-04-06T10:02:23;12.10;99.90
26378;DHT22;14078;50.974;6.786;2023-04-06T10:04:53;12.20;99.90
26378;DHT22;14078;50.974;6.786;2023-04-06T10:07:22;12.30;99.90
26378;DHT22;14078;50.974;6.786;2023-04-06T10:09:49;12.30;99.90
26378;DHT22;14078;50.974;6.786;2023-04-06T10:12:16;12.50;98.00
26378;DHT22;14078;50.974;6.786;2023-04-06T10:14:44;12.60;97.90
26378;DHT22;14078;50.974;6.786;2023-04-06T10:17:11;12.50;99.90
26378;DHT22;14078;50.974;6.786;2023-04-06T10:19:39;12.50;99.90
26378;DHT22;14078;50.974;6.786;2023-04-06T10:22:08;12.60;99.90
26378;DHT22;14078;50.974;6.786;2023-04-06T10:24:36;12.70;99.90
26378;DHT22;14078;50.974;6.786;2023-04-06T10:27:03;12.80;99.90
26378;DHT22;14078;50.974;6.786;2023-04-06T10:29:40;13.00;99.90
26378;DHT22;14078;50.974;6.786;2023-04-06T10:32:09;13.00;99.90
26378;DHT22;14078;50.974;6.786;2023-04-06T10:34:36;13.10;99.90
26378;DHT22;14078;50.974;6.786;2023-04-06T10:37:10;13.00;99.50
26378;DHT22;14078;50.974;6.786;2023-04-06T10:39:44;12.90;96.60
26378;DHT22;14078;50.974;6.786;2023-04-06T10:42:11;13.00;99.90
26378;DHT22;14078;50.974;6.786;2023-04-06T10:44:41;13.00;99.90
26378;DHT22;14078;50.974;6.786;2023-04-06T10:47:15;13.00;99.50
26378;DHT22;14078;50.974;6.786;2023-04-06T10:49:42;13.30;99.00
26378;DHT22;14078;50.974;6.786;2023-04-06T10:52:08;13.50;99.90
26378;DHT22;14078;50.974;6.786;2023-04-06T10:54:38;13.50;99.90
26378;DHT22;14078;50.974;6.786;2023-04-06T10:57:07;13.20;99.90
26378;DHT22;14078;50.974;6.786;2023-04-06T10:59:33;13.00;99.90
26378;DHT22;14078;50.974;6.786;2023-04-06T11:02:00;13.40;99.90
26378;DHT22;14078;50.974;6.786;2023-04-06T11:04:28;13.60;94.60
26378;DHT22;14078;50.974;6.786;2023-04-06T11:06:55;13.60;95.00
26378;DHT22;14078;50.974;6.786;2023-04-06T11:09:23;13.60;51.50
26378;DHT22;14078;50.974;6.786;2023-04-06T11:11:51;13.80;99.90
26378;DHT22;14078;50.974;6.786;2023-04-06T11:14:17;14.40;95.00
26378;DHT22;14078;50.974;6.786;2023-04-06T11:16:45;14.50;90.00
26378;DHT22;14078;50.974;6.786;2023-04-06T11:19:12;14.60;66.50
26378;DHT22;14078;50.974;6.786;2023-04-06T11:21:41;14.40;44.70
26378;DHT22;14078;50.974;6.786;2023-04-06T11:24:09;14.20;41.60
26378;DHT22;14078;50.974;6.786;2023-04-06T11:26:39;14.10;46.30
26378;DHT22;14078;50.974;6.786;2023-04-06T11:29:06;14.20;51.30
26378;DHT22;14078;50.974;6.786;2023-04-06T11:31:37;14.40;50.60
26378;DHT22;14078;50.974;6.786;2023-04-06T11:34:08;14.40;48.50
26378;DHT22;14078;50.974;6.786;2023-04-06T11:36:35;14.30;53.40
26378;DHT22;14078;50.974;6.786;2023-04-06T11:39:03;14.10;51.40
26378;DHT22;14078;50.974;6.786;2023-04-06T11:41:32;14.10;46.90
26378;DHT22;14078;50.974;6.786;2023-04-06T11:44:00;14.20;51.30
26378;DHT22;14078;50.974;6.786;2023-04-06T11:46:27;13.90;44.40
26378;DHT22;14078;50.974;6.786;2023-04-06T11:48:53;14.10;45.30
26378;DHT22;14078;50.974;6.786;2023-04-06T11:51:24;14.10;44.60
26378;DHT22;14078;50.974;6.786;2023-04-06T11:53:51;14.10;37.40
26378;DHT22;14078;50.974;6.786;2023-04-06T11:56:26;14.10;41.40
26378;DHT22;14078;50.974;6.786;2023-04-06T11:58:54;14.20;37.60
26378;DHT22;14078;50.974;6.786;2023-04-06T12:01:21;14.40;34.60
26378;DHT22;14078;50.974;6.786;2023-04-06T12:03:47;14.50;30.50
26378;DHT22;14078;50.974;6.786;2023-04-06T12:06:14;14.40;29.10
26378;DHT22;14078;50.974;6.786;2023-04-06T12:08:41;14.30;27.40
26378;DHT22;14078;50.974;6.786;2023-04-06T12:11:07;14.40;22.00
26378;DHT22;14078;50.974;6.786;2023-04-06T12:13:35;14.30;18.90
26378;DHT22;14078;50.974;6.786;2023-04-06T12:16:02;13.90;26.90
26378;DHT22;14078;50.974;6.786;2023-04-06T12:18:29;13.90;26.30
26378;DHT22;14078;50.974;6.786;2023-04-06T12:20:56;13.90;27.70
26378;DHT22;14078;50.974;6.786;2023-04-06T12:23:22;13.90;28.30
26378;DHT22;14078;50.974;6.786;2023-04-06T12:25:49;13.80;25.00
26378;DHT22;14078;50.974;6.786;2023-04-06T12:28:16;14.00;22.90
26378;DHT22;14078;50.974;6.786;2023-04-06T12:30:47;14.20;22.50
26378;DHT22;14078;50.974;6.786;2023-04-06T12:33:13;14.30;25.70
26378;DHT22;14078;50.974;6.786;2023-04-06T12:35:40;14.40;27.60
26378;DHT22;14078;50.974;6.786;2023-04-06T12:38:07;14.50;29.60
26378;DHT22;14078;50.974;6.786;2023-04-06T12:40:36;14.70;29.00
26378;DHT22;14078;50.974;6.786;2023-04-06T12:43:02;14.60;25.10
26378;DHT22;14078;50.974;6.786;2023-04-06T12:45:29;14.20;18.50
26378;DHT22;14078;50.974;6.786;2023-04-06T12:47:57;14.20;19.80
26378;DHT22;14078;50.974;6.786;2023-04-06T12:50:24;14.20;24.50
26378;DHT22;14078;50.974;6.786;2023-04-06T12:52:51;14.30;25.80
26378;DHT22;14078;50.974;6.786;2023-04-06T12:55:18;14.10;23.50
26378;DHT22;14078;50.974;6.786;2023-04-06T12:57:45;14.10;25.70
26378;DHT22;14078;50.974;6.786;2023-04-06T13:00:13;14.00;21.10
26378;DHT22;14078;50.974;6.786;2023-04-06T13:02:40;13.90;19.80
26378;DHT22;14078;50.974;6.786;2023-04-06T13:05:13;13.80;18.90
26378;DHT22;14078;50.974;6.786;2023-04-06T13:07:44;13.80;28.80
26378;DHT22;14078;50.974;6.786;2023-04-06T13:10:10;13.80;22.10
26378;DHT22;14078;50.974;6.786;2023-04-06T13:12:37;13.40;17.60
26378;DHT22;14078;50.974;6.786;2023-04-06T13:15:04;13.30;21.60
26378;DHT22;14078;50.974;6.786;2023-04-06T13:17:31;13.20;13.20
26378;DHT22;14078;50.974;6.786;2023-04-06T13:19:57;13.20;17.80
26378;DHT22;14078;50.974;6.786;2023-04-06T13:22:27;13.20;10.50
26378;DHT22;14078;50.974;6.786;2023-04-06T13:24:54;13.10;10.30
26378;DHT22;14078;50.974;6.786;2023-04-06T13:27:20;13.00;5.30
26378;DHT22;14078;50.974;6.786;2023-04-06T13:29:47;12.80;1.00
26378;DHT22;14078;50.974;6.786;2023-04-06T13:32:13;12.70;1.00
26378;DHT22;14078;50.974;6.786;2023-04-06T13:34:41;12.70;1.00
26378;DHT22;14078;50.974;6.786;2023-04-06T13:37:10;12.70;1.00
26378;DHT22;14078;50.974;6.786;2023-04-06T13:39:38;12.80;1.00
26378;DHT22;14078;50.974;6.786;2023-04-06T13:42:05;12.90;1.00
26378;DHT22;14078;50.974;6.786;2023-04-06T13:44:32;13.10;2.90
26378;DHT22;14078;50.974;6.786;2023-04-06T13:46:58;13.30;2.00
26378;DHT22;14078;50.974;6.786;2023-04-06T13:49:25;13.60;3.70
26378;DHT22;14078;50.974;6.786;2023-04-06T13:51:51;13.60;6.70
26378;DHT22;14078;50.974;6.786;2023-04-06T13:54:19;13.40;1.00
26378;DHT22;14078;50.974;6.786;2023-04-06T13:56:47;13.30;1.00
26378;DHT22;14078;50.974;6.786;2023-04-06T13:59:13;13.10;1.10
26378;DHT22;14078;50.974;6.786;2023-04-06T14:01:40;13.00;4.10
26378;DHT22;14078;50.974;6.786;2023-04-06T14:04:06;12.80;2.00
26378;DHT22;14078;50.974;6.786;2023-04-06T14:06:33;12.50;1.00
26378;DHT22;14078;50.974;6.786;2023-04-06T14:08:59;12.40;1.00
26378;DHT22;14078;50.974;6.786;2023-04-06T14:11:26;12.30;1.40
26378;DHT22;14078;50.974;6.786;2023-04-06T14:13:54;12.20;1.00
26378;DHT22;14078;50.974;6.786;2023-04-06T14:16:22;12.20;9.10
26378;DHT22;14078;50.974;6.786;2023-04-06T14:18:49;12.20;17.70
26378;DHT22;14078;50.974;6.786;2023-04-06T14:21:16;12.10;15.70
26378;DHT22;14078;50.974;6.786;2023-04-06T14:23:43;12.00;40.50
26378;DHT22;14078;50.974;6.786;2023-04-06T14:26:11;11.90;45.40
26378;DHT22;14078;50.974;6.786;2023-04-06T14:28:38;11.70;99.90
26378;DHT22;14078;50.974;6.786;2023-04-06T14:31:10;11.70;99.90
26378;DHT22;14078;50.974;6.786;2023-04-06T14:33:38;11.50;99.90
26378;DHT22;14078;50.974;6.786;2023-04-06T14:36:05;11.30;99.90
26378;DHT22;14078;50.974;6.786;2023-04-06T14:38:31;11.20;99.90
26378;DHT22;14078;50.974;6.786;2023-04-06T14:40:58;11.10;99.90
26378;DHT22;14078;50.974;6.786;2023-04-06T14:43:25;11.10;66.80
26378;DHT22;14078;50.974;6.786;2023-04-06T14:45:51;11.00;99.90
26378;DHT22;14078;50.974;6.786;2023-04-06T14:48:19;11.00;1.00
26378;DHT22;14078;50.974;6.786;2023-04-06T14:50:51;10.90;99.90
26378;DHT22;14078;50.974;6.786;2023-04-06T14:53:18;10.80;1.00
26378;DHT22;14078;50.974;6.786;2023-04-06T14:55:45;10.80;99.90
26378;DHT22;14078;50.974;6.786;2023-04-06T14:58:11;10.60;99.90
26378;DHT22;14078;50.974;6.786;2023-04-06T15:00:38;10.50;1.00
26378;DHT22;14078;50.974;6.786;2023-04-06T15:03:04;10.30;1.00
26378;DHT22;14078;50.974;6.786;2023-04-06T15:05:34;10.20;99.90
26378;DHT22;14078;50.974;6.786;2023-04-06T15:08:01;10.10;99.90
26378;DHT22;14078;50.974;6.786;2023-04-06T15:10:27;10.10;99.90
26378;DHT22;14078;50.974;6.786;2023-04-06T15:12:54;10.10;99.90
26378;DHT22;14078;50.974;6.786;2023-04-06T15:15:20;10.00;1.00
26378;DHT22;14078;50.974;6.786;2023-04-06T15:17:47;10.00;1.00
26378;DHT22;14078;50.974;6.786;2023-04-06T15:20:13;9.80;1.00
26378;DHT22;14078;50.974;6.786;2023-04-06T15:22:41;9.90;1.00
26378;DHT22;14078;50.974;6.786;2023-04-06T15:25:08;9.80;1.00
26378;DHT22;14078;50.974;6.786;2023-04-06T15:27:34;9.70;1.00
26378;DHT22;14078;50.974;6.786;2023-04-06T15:30:01;9.60;1.00
26378;DHT22;14078;50.974;6.786;2023-04-06T15:32:28;9.70;1.00
26378;DHT22;14078;50.974;6.786;2023-04-06T15:34:55;9.70;12.30
26378;DHT22;14078;50.974;6.786;2023-04-06T15:37:22;9.50;28.40
26378;DHT22;14078;50.974;6.786;2023-04-06T15:39:50;9.50;45.30
26378;DHT22;14078;50.974;6.786;2023-04-06T15:42:16;9.50;69.00
26378;DHT22;14078;50.974;6.786;2023-04-06T15:44:43;9.60;73.80
26378;DHT22;14078;50.974;6.786;2023-04-06T15:47:09;9.40;58.90
26378;DHT22;14078;50.974;6.786;2023-04-06T15:49:36;9.20;74.50